Time;durP1;ratioP1;P1;durP2;ratioP2;P2;SDS_P1;SDS_P2;PMS_P1;PMS_P2;Temp;Humidity;BMP_temperature;BMP_pressure;BME280_temperature;BME280_humidity;BME280_pressure;Samples;Min_cycle;Max_cycle;Signal;HPM_P1;HPM_P2
2022/05/21 00:00:06;;;;;;;4.50;2.03;;;20.80;95.10;;;;;;2005737;28;20444;-72
2022/05/21 00:01:04;;;;;;;3.40;1.90;;;20.80;95.10;;;;;;2005419;28;20213;-72
2022/05/21 00:02:03;;;;;;;3.37;1.90;;;20.80;95.10;;;;;;2004499;28;20492;-71
2022/05/21 00:03:05;;;;;;;3.27;1.50;;;20.80;95.10;;;;;;1991423;28;20270;-71
2022/05/21 00:04:04;;;;;;;2.10;1.60;;;20.80;95.20;;;;;;1989668;28;20469;-71
2022/05/21 00:05:03;;;;;;;2.83;1.70;;;20.80;95.10;;;;;;1998217;28;21014;-71
2022/05/21 00:06:02;;;;;;;1.47;1.30;;;20.80;95.00;;;;;;1998447;28;20684;-72
2022/05/21 00:07:01;;;;;;;1.97;1.30;;;20.80;95.00;;;;;;1998459;28;20511;-71
2022/05/21 00:08:00;;;;;;;5.13;1.40;;;20.80;95.00;;;;;;1998235;28;20261;-71
2022/05/21 00:08:58;;;;;;;4.60;1.57;;;20.80;95.00;;;;;;1997927;28;20214;-71
2022/05/21 00:09:57;;;;;;;3.60;1.50;;;20.80;95.00;;;;;;1998064;28;20184;-71
2022/05/21 00:10:55;;;;;;;2.80;1.60;;;20.80;95.00;;;;;;1997871;28;20653;-71
2022/05/21 00:11:55;;;;;;;3.07;1.53;;;20.80;95.10;;;;;;1997248;28;20652;-72
2022/05/21 00:12:54;;;;;;;3.63;1.67;;;20.80;95.00;;;;;;1997244;28;20184;-73
2022/05/21 00:13:55;;;;;;;1.67;1.47;;;20.80;95.00;;;;;;1989315;28;20424;-72
2022/05/21 00:14:55;;;;;;;1.70;1.10;;;20.70;94.90;;;;;;1989857;28;20418;-71
2022/05/21 00:15:53;;;;;;;8.40;1.87;;;20.80;95.00;;;;;;1998074;28;20495;-72
2022/05/21 00:16:52;;;;;;;3.63;1.40;;;20.80;94.90;;;;;;1997374;28;20449;-72
2022/05/21 00:17:52;;;;;;;7.00;1.37;;;20.80;94.90;;;;;;1997783;28;20182;-71
2022/05/21 00:18:52;;;;;;;5.17;1.93;;;20.80;95.00;;;;;;1998264;28;20645;-72
2022/05/21 00:19:51;;;;;;;3.30;1.37;;;20.80;94.90;;;;;;1998496;28;20892;-71
2022/05/21 00:20:50;;;;;;;3.10;1.90;;;20.80;94.90;;;;;;1997729;28;20476;-71
2022/05/21 00:21:51;;;;;;;3.47;1.83;;;20.80;95.00;;;;;;1997448;28;20170;-71
2022/05/21 00:22:50;;;;;;;5.23;1.57;;;20.80;94.90;;;;;;1997965;28;20154;-71
2022/05/21 00:23:49;;;;;;;1.93;1.40;;;20.70;94.90;;;;;;1997840;28;20902;-73
2022/05/21 00:24:48;;;;;;;5.53;1.40;;;20.70;94.90;;;;;;1997965;28;20182;-71
2022/05/21 00:25:49;;;;;;;2.20;1.47;;;20.70;94.90;;;;;;1998066;28;20404;-71
2022/05/21 00:26:48;;;;;;;1.60;1.27;;;20.70;94.90;;;;;;1997529;28;20198;-72
2022/05/21 00:27:46;;;;;;;2.30;1.00;;;20.70;94.90;;;;;;1997603;28;20908;-71
2022/05/21 00:28:49;;;;;;;1.80;1.40;;;20.70;94.90;;;;;;1989092;28;20554;-72
2022/05/21 00:29:47;;;;;;;1.80;1.20;;;20.70;94.90;;;;;;1989525;28;20175;-71
2022/05/21 00:30:46;;;;;;;2.07;1.43;;;20.70;94.90;;;;;;1997786;28;20794;-72
2022/05/21 00:31:47;;;;;;;6.03;1.70;;;20.70;94.90;;;;;;1997888;28;20539;-73
2022/05/21 00:32:45;;;;;;;1.70;1.40;;;20.70;94.90;;;;;;1997783;28;20679;-71
2022/05/21 00:33:45;;;;;;;5.40;1.27;;;20.70;94.90;;;;;;1997996;28;20404;-72
2022/05/21 00:34:44;;;;;;;3.70;1.47;;;20.70;95.00;;;;;;1997995;28;20175;-72
2022/05/21 00:35:42;;;;;;;5.17;1.27;;;20.70;95.00;;;;;;1997683;28;20527;-71
2022/05/21 00:36:42;;;;;;;4.33;1.80;;;20.70;94.90;;;;;;1998545;28;20449;-71
2022/05/21 00:37:41;;;;;;;3.73;1.30;;;20.70;94.90;;;;;;1998952;28;20178;-72
2022/05/21 00:38:40;;;;;;;2.10;1.60;;;20.80;95.00;;;;;;1999550;28;20429;-71
2022/05/21 00:39:39;;;;;;;6.00;1.77;;;20.70;94.90;;;;;;1998263;28;20193;-72
2022/05/21 00:40:38;;;;;;;2.40;1.50;;;20.70;94.90;;;;;;1997776;28;20425;-73
2022/05/21 00:41:38;;;;;;;3.73;1.67;;;20.70;95.00;;;;;;1998462;28;20189;-72
2022/05/21 00:42:43;;;;;;;8.43;2.43;;;20.70;95.30;;;;;;1998407;28;20849;-73
2022/05/21 00:43:54;;;;;;;2.90;1.40;;;20.70;95.00;;;;;;1997720;28;20397;-72
2022/05/21 00:44:53;;;;;;;3.47;1.50;;;20.70;95.00;;;;;;1998165;28;20848;-72
2022/05/21 00:45:52;;;;;;;2.70;2.13;;;20.70;95.00;;;;;;1998049;28;20497;-72
2022/05/21 00:46:50;;;;;;;3.80;1.60;;;20.70;95.00;;;;;;1998015;28;20469;-72
2022/05/21 00:47:49;;;;;;;4.10;1.37;;;20.70;95.00;;;;;;1998005;28;20193;-71
2022/05/21 00:49:10;;;;;;;2.23;1.20;;;20.70;95.10;;;;;;1998090;28;20178;-72
2022/05/21 00:50:12;;;;;;;5.20;1.40;;;20.70;95.00;;;;;;1991431;28;20193;-72
2022/05/21 00:51:15;;;;;;;2.40;1.07;;;20.70;95.00;;;;;;1989412;28;20496;-72
2022/05/21 00:52:17;;;;;;;4.63;1.43;;;20.70;95.00;;;;;;1990022;28;20413;-72
2022/05/21 00:53:15;;;;;;;5.70;1.77;;;20.70;95.00;;;;;;1998827;28;20483;-72
2022/05/21 00:54:15;;;;;;;6.53;1.33;;;20.70;95.00;;;;;;1999362;28;20578;-71
2022/05/21 00:55:20;;;;;;;3.60;1.70;;;20.70;95.10;;;;;;1999372;28;20266;-73
2022/05/21 00:56:19;;;;;;;4.73;2.17;;;20.70;95.00;;;;;;1999263;28;20389;-72
2022/05/21 00:57:30;;;;;;;3.23;1.40;;;20.70;95.00;;;;;;1999352;28;20416;-72
2022/05/21 00:59:52;;;;;;;1.67;1.57;;;20.70;95.10;;;;;;1999921;28;20904;-71
2022/05/21 01:00:51;;;;;;;1.90;1.47;;;20.70;95.20;;;;;;2003151;28;20461;-72
2022/05/21 01:01:54;;;;;;;1.43;1.23;;;20.60;95.20;;;;;;2006923;28;20401;-72
2022/05/21 01:02:56;;;;;;;5.17;1.60;;;20.70;95.30;;;;;;2006909;28;20420;-72
2022/05/21 01:03:54;;;;;;;1.40;1.30;;;20.60;95.30;;;;;;2006746;28;20425;-73
2022/05/21 01:04:56;;;;;;;6.30;1.30;;;20.60;95.40;;;;;;2006644;28;20492;-72
2022/05/21 01:05:58;;;;;;;1.97;1.27;;;20.60;95.40;;;;;;2006583;28;20165;-73
2022/05/21 01:06:58;;;;;;;2.70;1.40;;;20.60;95.40;;;;;;2006265;28;20463;-72
2022/05/21 01:07:58;;;;;;;2.60;1.40;;;20.70;95.50;;;;;;2006818;28;20427;-72
2022/05/21 01:08:57;;;;;;;1.60;1.47;;;20.60;95.40;;;;;;2006496;28;20397;-73
2022/05/21 01:09:58;;;;;;;2.47;1.40;;;20.60;95.60;;;;;;2006593;28;20444;-72
2022/05/21 01:11:02;;;;;;;6.40;1.53;;;20.70;95.70;;;;;;2006403;28;20158;-71
2022/05/21 01:12:03;;;;;;;1.83;1.20;;;20.60;95.60;;;;;;2006337;28;20373;-73
2022/05/21 01:13:06;;;;;;;3.43;1.20;;;20.60;95.50;;;;;;2000048;28;20505;-73
2022/05/21 01:14:08;;;;;;;3.13;1.50;;;20.60;95.60;;;;;;2006386;28;20378;-73
2022/05/21 01:15:11;;;;;;;3.73;1.20;;;20.60;95.60;;;;;;2006480;28;20459;-73
2022/05/21 01:16:10;;;;;;;3.60;1.67;;;20.60;95.60;;;;;;2006355;28;20420;-72
2022/05/21 01:17:08;;;;;;;1.93;1.00;;;20.60;95.90;;;;;;2006221;28;20409;-73
2022/05/21 01:18:08;;;;;;;2.00;1.20;;;20.70;96.10;;;;;;2005311;28;20216;-73
2022/05/21 01:19:09;;;;;;;8.63;1.80;;;20.60;97.40;;;;;;1998168;28;20171;-72
2022/05/21 01:20:13;;;;;;;2.90;1.47;;;20.60;95.90;;;;;;1997987;28;20424;-71
2022/05/21 01:21:12;;;;;;;9.70;1.53;;;20.60;96.30;;;;;;2006048;28;20437;-73
2022/05/21 01:22:10;;;;;;;3.00;1.40;;;20.60;96.80;;;;;;2006513;28;20464;-72
2022/05/21 01:23:10;;;;;;;2.03;1.50;;;20.60;98.10;;;;;;2005440;28;20472;-72
2022/05/21 01:24:10;;;;;;;4.43;1.40;;;;;;;;;;2005798;28;20174;-72
2022/05/21 01:25:10;;;;;;;2.30;1.40;;;;;;;;;;2004223;28;20504;-71
2022/05/21 01:26:18;;;;;;;2.43;1.40;;;;;;;;;;2001927;28;20389;-73
2022/05/21 01:27:17;;;;;;;3.47;1.17;;;;;;;;;;2006513;28;20436;-73
2022/05/21 01:28:17;;;;;;;2.77;1.13;;;;;;;;;;2006544;28;20440;-72
2022/05/21 01:29:22;;;;;;;2.50;1.50;;;;;;;;;;2006528;28;20427;-72
2022/05/21 01:30:30;;;;;;;4.17;1.70;;;20.50;96.00;;;;;;2006393;28;20382;-72
2022/05/21 01:31:28;;;;;;;2.60;1.20;;;20.50;95.60;;;;;;2005976;28;20409;-71
2022/05/21 01:32:28;;;;;;;2.70;1.20;;;20.50;95.40;;;;;;2006286;28;20413;-71
2022/05/21 01:33:30;;;;;;;2.40;1.50;;;20.60;95.20;;;;;;2005736;28;20193;-72
2022/05/21 01:34:29;;;;;;;2.13;1.30;;;20.60;95.10;;;;;;2005599;28;20501;-72
2022/05/21 01:35:28;;;;;;;2.80;1.30;;;20.60;95.10;;;;;;2004922;28;20444;-73
2022/05/21 01:36:27;;;;;;;2.43;1.30;;;20.60;95.00;;;;;;2005266;28;20181;-73
2022/05/21 01:37:31;;;;;;;5.57;1.30;;;20.60;94.90;;;;;;2005046;28;20408;-72
2022/05/21 01:38:30;;;;;;;1.50;1.10;;;20.60;94.90;;;;;;2004760;28;20159;-71
2022/05/21 01:39:28;;;;;;;2.53;1.40;;;20.60;94.90;;;;;;1997444;28;20410;-72
2022/05/21 01:40:28;;;;;;;5.93;1.30;;;20.60;94.90;;;;;;1997149;28;20903;-72
2022/05/21 01:41:27;;;;;;;3.50;0.97;;;20.60;94.80;;;;;;1996920;28;20254;-72
2022/05/21 01:42:25;;;;;;;2.47;1.30;;;20.60;94.80;;;;;;1997055;28;20532;-73
2022/05/21 01:44:42;;;;;;;2.90;1.40;;;20.60;94.80;;;;;;1997162;28;20159;-72
2022/05/21 01:45:41;;;;;;;3.67;1.60;;;20.50;94.80;;;;;;1996361;28;20416;-73
2022/05/21 01:46:41;;;;;;;1.37;1.27;;;20.50;94.80;;;;;;1988697;28;20198;-71
2022/05/21 01:47:42;;;;;;;5.20;1.97;;;20.60;94.80;;;;;;1988661;28;20162;-73
2022/05/21 01:48:42;;;;;;;3.57;1.97;;;20.50;94.70;;;;;;1996976;28;20406;-71
2022/05/21 01:49:42;;;;;;;2.27;1.03;;;20.60;94.80;;;;;;1997087;28;20389;-71
2022/05/21 01:50:40;;;;;;;1.23;1.13;;;20.60;94.80;;;;;;1996925;28;20405;-71
2022/05/21 01:51:38;;;;;;;2.70;1.33;;;20.60;94.80;;;;;;1997055;28;20397;-72
2022/05/21 01:52:38;;;;;;;4.93;1.17;;;20.50;94.80;;;;;;1996975;28;20261;-71
2022/05/21 01:53:38;;;;;;;1.30;1.20;;;20.50;94.80;;;;;;1996890;28;20253;-72
2022/05/21 01:54:38;;;;;;;2.60;1.07;;;20.60;94.80;;;;;;1997077;28;20393;-72
2022/05/21 01:55:38;;;;;;;1.40;1.23;;;20.50;94.70;;;;;;1996646;28;20416;-72
2022/05/21 01:56:36;;;;;;;3.73;1.13;;;20.50;94.80;;;;;;1997018;28;20877;-72
2022/05/21 01:57:35;;;;;;;1.60;0.90;;;20.50;94.80;;;;;;1996955;28;20393;-73
2022/05/21 01:58:34;;;;;;;2.33;1.40;;;20.50;94.80;;;;;;1997043;28;20174;-72
2022/05/21 01:59:33;;;;;;;1.80;1.13;;;20.60;94.70;;;;;;1996924;28;20166;-72
2022/05/21 02:00:31;;;;;;;1.53;1.30;;;20.50;94.70;;;;;;1996618;28;20397;-72
2022/05/21 02:01:30;;;;;;;3.77;1.20;;;20.50;94.70;;;;;;1996181;28;20491;-72
2022/05/21 02:02:29;;;;;;;2.90;1.10;;;20.50;94.80;;;;;;1997009;28;20336;-71
2022/05/21 02:03:28;;;;;;;2.27;1.40;;;20.50;94.80;;;;;;1996420;28;20174;-71
2022/05/21 02:04:29;;;;;;;3.03;1.30;;;20.50;94.80;;;;;;1988552;28;20174;-72
2022/05/21 02:05:27;;;;;;;3.23;1.50;;;20.50;94.70;;;;;;1988505;28;20500;-72
2022/05/21 02:06:28;;;;;;;5.53;1.07;;;20.50;94.70;;;;;;1996868;28;20400;-72
2022/05/21 02:07:26;;;;;;;4.60;1.33;;;20.50;94.70;;;;;;1996979;28;20161;-73
2022/05/21 02:08:25;;;;;;;2.10;1.33;;;20.50;94.80;;;;;;1997006;28;20483;-72
2022/05/21 02:09:23;;;;;;;1.80;1.20;;;20.50;94.70;;;;;;1996947;28;20233;-72
2022/05/21 02:10:22;;;;;;;3.27;1.77;;;20.50;94.70;;;;;;1996925;28;20182;-71
2022/05/21 02:11:20;;;;;;;1.20;1.00;;;20.50;94.70;;;;;;1996795;28;20172;-73
2022/05/21 02:12:21;;;;;;;1.93;1.40;;;20.50;94.70;;;;;;1996904;28;20408;-71
2022/05/21 02:13:26;;;;;;;6.20;1.50;;;20.50;94.60;;;;;;1996786;28;20189;-71
2022/05/21 02:14:24;;;;;;;1.47;1.13;;;20.50;94.70;;;;;;1996960;28;20848;-71
2022/05/21 02:15:24;;;;;;;3.83;1.20;;;20.50;94.70;;;;;;1996762;28;20408;-73
2022/05/21 02:16:23;;;;;;;2.33;1.40;;;20.50;94.70;;;;;;1996785;28;20214;-72
2022/05/21 02:17:22;;;;;;;4.90;1.13;;;20.50;94.80;;;;;;1996729;28;20771;-73
2022/05/21 02:18:21;;;;;;;1.63;1.00;;;20.50;94.70;;;;;;1996837;28;20694;-72
2022/05/21 02:19:21;;;;;;;2.53;1.60;;;20.50;94.80;;;;;;1996764;28;20397;-72
2022/05/21 02:20:19;;;;;;;3.40;1.20;;;20.50;94.70;;;;;;1996368;28;20181;-72
2022/05/21 02:21:18;;;;;;;2.10;1.27;;;20.50;94.80;;;;;;1996753;28;20454;-72
2022/05/21 02:22:16;;;;;;;1.63;1.20;;;20.50;94.80;;;;;;1996782;28;20284;-72
2022/05/21 02:23:16;;;;;;;1.37;1.23;;;20.50;94.80;;;;;;1996692;28;20174;-71
2022/05/21 02:24:15;;;;;;;1.43;1.10;;;20.50;94.70;;;;;;1996675;28;20249;-71
2022/05/21 02:25:16;;;;;;;1.83;1.30;;;20.50;94.90;;;;;;1996228;28;20421;-72
2022/05/21 02:26:17;;;;;;;1.43;1.20;;;20.50;94.80;;;;;;1996272;28;20649;-72
2022/05/21 02:27:16;;;;;;;1.67;1.10;;;20.50;94.70;;;;;;1996699;28;20865;-72
2022/05/21 02:28:15;;;;;;;1.30;1.10;;;20.50;94.70;;;;;;1996839;28;20413;-72
2022/05/21 02:29:15;;;;;;;2.53;1.37;;;20.50;94.70;;;;;;1996748;28;20745;-72
2022/05/21 02:30:14;;;;;;;3.13;1.37;;;20.50;94.60;;;;;;1996651;28;20766;-72
2022/05/21 02:31:13;;;;;;;2.50;1.20;;;20.50;95.00;;;;;;1996697;28;20427;-72
2022/05/21 02:32:14;;;;;;;1.40;1.30;;;20.50;94.60;;;;;;1996246;28;20185;-72
2022/05/21 02:33:13;;;;;;;1.30;0.90;;;20.50;94.70;;;;;;1996046;28;20467;-72
2022/05/21 02:34:12;;;;;;;3.73;1.20;;;20.50;94.70;;;;;;1995960;28;20436;-71
2022/05/21 02:35:11;;;;;;;2.57;1.33;;;20.50;94.70;;;;;;1996454;28;20412;-71
2022/05/21 02:36:09;;;;;;;2.00;1.57;;;20.50;94.60;;;;;;1996639;28;20201;-72
2022/05/21 02:39:43;;;;;;;1.17;1.00;;;20.50;94.60;;;;;;1996848;28;20386;-72
2022/05/21 02:40:42;;;;;;;1.47;1.00;;;20.50;94.70;;;;;;1996044;28;20425;-72
2022/05/21 02:41:40;;;;;;;1.10;1.00;;;20.50;94.70;;;;;;1996259;28;20257;-72
2022/05/21 02:42:49;;;;;;;2.37;1.20;;;20.50;94.70;;;;;;1996740;28;20413;-72
2022/05/21 02:43:48;;;;;;;1.77;1.20;;;20.40;94.60;;;;;;1988373;28;20261;-72
2022/05/21 02:44:47;;;;;;;1.30;1.20;;;20.50;94.60;;;;;;1988402;28;20417;-72
2022/05/21 02:45:46;;;;;;;1.23;1.00;;;20.50;94.70;;;;;;1995645;28;20463;-73
2022/05/21 02:46:44;;;;;;;1.70;1.10;;;20.50;94.70;;;;;;1996468;28;20653;-71
2022/05/21 02:47:44;;;;;;;2.23;1.23;;;20.50;94.70;;;;;;1999016;28;20468;-72
2022/05/21 02:48:43;;;;;;;1.90;1.20;;;20.50;94.60;;;;;;2002838;28;20174;-71
2022/05/21 02:49:44;;;;;;;1.87;1.40;;;20.50;94.70;;;;;;2004870;28;20409;-73
2022/05/21 02:50:44;;;;;;;3.63;1.23;;;20.50;94.60;;;;;;2005107;28;20201;-72
2022/05/21 02:51:42;;;;;;;2.10;1.10;;;20.50;94.60;;;;;;2001091;28;20416;-71
2022/05/21 02:52:42;;;;;;;1.37;0.80;;;20.50;95.00;;;;;;1999523;28;20492;-72
2022/05/21 02:53:41;;;;;;;1.23;1.00;;;20.50;94.60;;;;;;1997716;28;20552;-71
2022/05/21 02:54:39;;;;;;;4.60;1.10;;;20.50;94.70;;;;;;1997314;28;20405;-71
2022/05/21 02:55:39;;;;;;;1.60;1.10;;;20.50;94.70;;;;;;1997204;28;20184;-71
2022/05/21 02:56:43;;;;;;;1.60;0.93;;;20.50;94.70;;;;;;1996730;28;20186;-72
2022/05/21 02:57:44;;;;;;;2.67;1.23;;;20.50;94.60;;;;;;1996754;28;20845;-71
2022/05/21 02:58:43;;;;;;;1.60;1.20;;;20.50;94.60;;;;;;1996670;28;20417;-72
2022/05/21 02:59:42;;;;;;;2.30;1.13;;;20.50;94.90;;;;;;1996871;28;20428;-72
2022/05/21 03:00:42;;;;;;;2.60;1.27;;;20.50;94.80;;;;;;1996978;28;20412;-72
2022/05/21 03:01:41;;;;;;;3.60;1.30;;;20.50;94.60;;;;;;1996912;28;20249;-71
2022/05/21 03:02:40;;;;;;;0.93;0.80;;;20.50;94.70;;;;;;1997140;28;20484;-71
2022/05/21 03:03:39;;;;;;;2.10;1.00;;;20.50;94.70;;;;;;1997245;28;20174;-71
2022/05/21 03:04:37;;;;;;;3.43;1.50;;;20.40;94.80;;;;;;1997261;28;20408;-72
2022/05/21 03:05:37;;;;;;;2.00;0.90;;;20.50;94.80;;;;;;1988621;28;20174;-71
2022/05/21 03:06:36;;;;;;;6.17;1.00;;;20.40;94.70;;;;;;1988239;28;20216;-72
2022/05/21 03:07:39;;;;;;;1.60;1.10;;;20.40;94.70;;;;;;1996575;28;20397;-71
2022/05/21 03:11:14;;;;;;;1.50;1.17;;;20.50;94.70;;;;;;1996732;28;20366;-72
2022/05/21 03:12:13;;;;;;;4.20;1.10;;;20.40;94.70;;;;;;1996656;28;20393;-72
2022/05/21 03:13:11;;;;;;;1.83;1.40;;;20.40;94.80;;;;;;1998183;28;20919;-72
2022/05/21 03:14:10;;;;;;;1.53;0.97;;;20.40;94.80;;;;;;1998273;28;20213;-72
2022/05/21 03:15:09;;;;;;;1.70;1.20;;;20.40;94.90;;;;;;1998060;28;20174;-72
2022/05/21 03:16:07;;;;;;;1.20;0.97;;;20.40;94.80;;;;;;1998218;28;20177;-72
2022/05/21 03:17:06;;;;;;;2.60;1.60;;;20.40;94.80;;;;;;1998048;28;20206;-72
2022/05/21 03:18:09;;;;;;;1.20;1.07;;;20.50;94.80;;;;;;1998177;28;20261;-71
2022/05/21 03:19:09;;;;;;;3.33;1.50;;;20.40;94.70;;;;;;1998124;28;20186;-70
2022/05/21 03:20:08;;;;;;;7.33;1.20;;;20.40;94.80;;;;;;1998128;28;20403;-71
2022/05/21 03:21:07;;;;;;;1.00;0.80;;;20.40;94.70;;;;;;1998010;28;20817;-71
2022/05/21 03:22:05;;;;;;;2.27;1.20;;;20.40;95.00;;;;;;1997160;28;20464;-71
2022/05/21 03:23:05;;;;;;;2.07;1.10;;;20.40;95.00;;;;;;1989905;28;20177;-71
2022/05/21 03:24:04;;;;;;;1.00;0.93;;;20.40;94.80;;;;;;1989743;28;20606;-71
2022/05/21 03:25:04;;;;;;;4.93;1.00;;;20.40;94.80;;;;;;1997180;28;20471;-73
2022/05/21 03:26:03;;;;;;;1.20;0.90;;;20.50;94.90;;;;;;1997737;28;20405;-72
2022/05/21 03:27:01;;;;;;;1.40;1.30;;;20.50;94.90;;;;;;1997959;28;20440;-73
2022/05/21 03:28:00;;;;;;;1.77;0.90;;;20.40;94.90;;;;;;1998216;28;20178;-72
2022/05/21 03:28:59;;;;;;;2.97;1.00;;;20.40;94.90;;;;;;1997399;28;20274;-72
2022/05/21 03:29:59;;;;;;;1.50;1.10;;;20.50;95.00;;;;;;1997525;28;20479;-72
2022/05/21 03:30:59;;;;;;;2.10;1.23;;;20.40;94.90;;;;;;1998143;28;20176;-72
2022/05/21 03:31:57;;;;;;;4.10;1.30;;;20.40;94.80;;;;;;1998218;28;20411;-72
2022/05/21 03:32:56;;;;;;;2.03;1.30;;;20.40;94.90;;;;;;1997407;28;20892;-72
2022/05/21 03:33:54;;;;;;;1.87;1.00;;;20.40;94.90;;;;;;1997492;28;20185;-72
2022/05/21 03:34:54;;;;;;;2.00;1.10;;;20.40;95.10;;;;;;1997375;28;20436;-75
2022/05/21 03:35:53;;;;;;;2.30;1.20;;;20.40;95.00;;;;;;1997343;28;20181;-72
2022/05/21 03:36:51;;;;;;;1.77;1.30;;;20.40;95.30;;;;;;1997939;28;20920;-72
2022/05/21 03:37:51;;;;;;;2.13;1.10;;;;;;;;;;1997370;28;20610;-72
2022/05/21 03:38:50;;;;;;;1.60;1.33;;;;;;;;;;1997406;28;20547;-72
2022/05/21 03:39:50;;;;;;;2.13;1.10;;;;;;;;;;1998240;28;20440;-72
2022/05/21 03:40:50;;;;;;;1.20;0.97;;;20.40;96.70;;;;;;1997859;28;20421;-72
2022/05/21 03:41:48;;;;;;;2.70;1.10;;;20.40;95.80;;;;;;1998169;28;20408;-72
2022/05/21 03:42:48;;;;;;;1.60;1.10;;;20.40;95.50;;;;;;1998019;28;20412;-71
2022/05/21 03:43:48;;;;;;;3.87;1.40;;;20.40;95.60;;;;;;1997955;28;20186;-72
2022/05/21 03:44:48;;;;;;;1.53;0.97;;;20.40;95.40;;;;;;1997877;28;20423;-71
2022/05/21 03:45:46;;;;;;;2.30;1.07;;;20.40;95.20;;;;;;1997825;28;20417;-70
2022/05/21 03:46:45;;;;;;;3.10;1.27;;;20.40;95.20;;;;;;1997861;28;20515;-73
2022/05/21 03:47:44;;;;;;;2.90;1.40;;;20.40;95.10;;;;;;1997900;28;20307;-72
2022/05/21 03:48:42;;;;;;;2.93;1.43;;;20.40;95.00;;;;;;1998049;28;20179;-71
2022/05/21 03:49:41;;;;;;;1.50;1.07;;;20.50;95.10;;;;;;1997820;28;20495;-72
2022/05/21 03:50:39;;;;;;;1.33;0.80;;;20.40;95.00;;;;;;1997944;28;20170;-71
2022/05/21 03:51:38;;;;;;;1.50;1.20;;;20.40;95.00;;;;;;1997871;28;20184;-70
2022/05/21 03:52:36;;;;;;;3.13;0.97;;;20.40;95.00;;;;;;1997999;28;20177;-71
2022/05/21 03:53:35;;;;;;;2.10;1.00;;;20.40;95.00;;;;;;1997845;28;20584;-72
2022/05/21 03:54:34;;;;;;;1.43;1.30;;;20.40;95.10;;;;;;1997948;28;20169;-72
2022/05/21 03:55:33;;;;;;;2.40;1.00;;;20.40;95.00;;;;;;1998061;28;20204;-72
2022/05/21 03:56:31;;;;;;;1.33;1.00;;;20.40;95.00;;;;;;1997752;28;20452;-72
2022/05/21 03:57:32;;;;;;;1.13;0.90;;;20.40;95.20;;;;;;1997272;28;20185;-72
2022/05/21 03:58:31;;;;;;;1.30;1.00;;;20.40;95.10;;;;;;1997256;28;20609;-72
2022/05/21 03:59:31;;;;;;;2.23;1.47;;;20.40;95.20;;;;;;1997939;28;20402;-73
2022/05/21 04:00:29;;;;;;;1.20;1.10;;;20.40;95.20;;;;;;1997800;28;20429;-72
2022/05/21 04:01:29;;;;;;;2.30;1.30;;;20.40;95.30;;;;;;1997839;28;20460;-72
2022/05/21 04:02:28;;;;;;;2.00;1.10;;;20.40;95.30;;;;;;1997875;28;20497;-71
2022/05/21 04:03:27;;;;;;;1.90;1.00;;;20.30;97.60;;;;;;1997778;28;20411;-72
2022/05/21 04:04:26;;;;;;;2.13;1.60;;;20.30;95.30;;;;;;1997630;28;20405;-72
2022/05/21 04:05:25;;;;;;;3.47;1.13;;;20.40;95.40;;;;;;1997909;28;20184;-72
2022/05/21 04:06:23;;;;;;;1.43;1.23;;;20.50;95.50;;;;;;1997749;28;20193;-72
2022/05/21 04:07:24;;;;;;;5.43;1.13;;;20.30;95.00;;;;;;1997899;28;20393;-72
2022/05/21 04:08:25;;;;;;;1.10;1.00;;;20.40;95.70;;;;;;1989156;28;20566;-72
2022/05/21 04:09:27;;;;;;;1.20;0.93;;;19.90;95.60;;;;;;1989379;28;20637;-71
2022/05/21 04:10:26;;;;;;;2.10;0.90;;;20.30;95.70;;;;;;1997862;28;20429;-72
2022/05/21 04:11:25;;;;;;;2.80;1.03;;;20.40;95.40;;;;;;1997880;28;20507;-71
2022/05/21 04:12:23;;;;;;;2.60;1.10;;;20.40;95.20;;;;;;1989217;28;20209;-72
2022/05/21 04:13:26;;;;;;;1.90;1.07;;;20.40;95.30;;;;;;1981691;29;20492;-72
2022/05/21 04:14:29;;;;;;;2.93;1.40;;;20.40;95.50;;;;;;1981772;29;20167;-72
2022/05/21 04:15:27;;;;;;;2.10;1.17;;;20.40;95.60;;;;;;1989291;28;20394;-72
2022/05/21 04:16:26;;;;;;;1.10;1.00;;;20.40;96.20;;;;;;1997023;28;20413;-71
2022/05/21 04:17:26;;;;;;;2.40;1.03;;;20.30;96.10;;;;;;1989315;28;20179;-72
2022/05/21 04:18:26;;;;;;;4.80;1.50;;;20.30;95.80;;;;;;1989272;28;20568;-72
2022/05/21 04:19:27;;;;;;;3.50;1.33;;;20.40;95.00;;;;;;1997567;28;20887;-72
2022/05/21 04:20:27;;;;;;;4.07;1.20;;;20.40;95.00;;;;;;1996733;28;20608;-72
2022/05/21 04:21:26;;;;;;;1.30;1.00;;;20.40;95.00;;;;;;1997074;28;20441;-72
2022/05/21 04:22:25;;;;;;;2.80;1.20;;;20.40;95.00;;;;;;1997357;28;20893;-71
2022/05/21 04:23:23;;;;;;;1.47;1.00;;;20.40;94.90;;;;;;1997721;28;20436;-72
2022/05/21 04:24:22;;;;;;;1.20;0.70;;;20.40;94.90;;;;;;1996657;28;20174;-72
2022/05/21 04:25:21;;;;;;;2.20;1.30;;;20.40;94.90;;;;;;1997235;28;20256;-71
2022/05/21 04:26:19;;;;;;;2.80;1.00;;;20.40;95.00;;;;;;1997017;28;20409;-73
2022/05/21 04:27:19;;;;;;;1.27;0.90;;;20.40;95.00;;;;;;1997885;28;20746;-72
2022/05/21 04:28:18;;;;;;;1.73;1.20;;;20.40;95.20;;;;;;1997704;28;20182;-73
2022/05/21 04:29:17;;;;;;;1.63;1.10;;;20.30;95.30;;;;;;1997548;28;20413;-71
2022/05/21 04:30:28;;;;;;;1.30;0.90;;;20.30;95.20;;;;;;1997558;28;20409;-71
2022/05/21 04:31:27;;;;;;;8.13;1.50;;;20.30;95.40;;;;;;1997666;28;20903;-71
2022/05/21 04:32:26;;;;;;;2.17;1.20;;;20.30;95.20;;;;;;1997541;28;20405;-73
2022/05/21 04:33:24;;;;;;;1.20;1.00;;;20.40;95.20;;;;;;1997667;28;20412;-72
2022/05/21 04:34:24;;;;;;;1.33;1.10;;;20.30;94.80;;;;;;1997416;28;20172;-72
2022/05/21 04:35:24;;;;;;;1.70;0.90;;;20.30;95.00;;;;;;1997413;28;20173;-72
2022/05/21 04:36:22;;;;;;;1.50;1.10;;;20.40;95.20;;;;;;1997419;28;20428;-72
2022/05/21 04:37:21;;;;;;;2.40;1.10;;;20.40;95.00;;;;;;1997538;28;20492;-71
2022/05/21 04:38:19;;;;;;;1.43;0.80;;;20.40;94.90;;;;;;1997635;28;20401;-71
2022/05/21 04:39:18;;;;;;;3.77;1.37;;;20.40;95.00;;;;;;1997613;28;20232;-73
2022/05/21 04:40:22;;;;;;;5.90;1.33;;;20.40;95.10;;;;;;1997383;28;20194;-71
2022/05/21 04:41:22;;;;;;;1.80;1.20;;;20.30;95.20;;;;;;1997351;28;20248;-70
2022/05/21 04:42:21;;;;;;;1.67;0.97;;;20.40;95.20;;;;;;1988918;28;20798;-72
2022/05/21 04:43:19;;;;;;;1.40;1.00;;;20.30;94.90;;;;;;1989123;28;20406;-72
2022/05/21 04:44:17;;;;;;;2.30;1.13;;;20.30;95.30;;;;;;1996183;28;20178;-72
2022/05/21 04:45:16;;;;;;;13.33;1.33;;;20.40;95.40;;;;;;1996777;28;20174;-72
2022/05/21 04:46:15;;;;;;;1.57;0.90;;;20.30;95.30;;;;;;1997414;28;20242;-72
2022/05/21 04:47:14;;;;;;;1.50;0.93;;;20.30;95.20;;;;;;1997323;28;20475;-72
2022/05/21 04:48:13;;;;;;;1.47;0.93;;;20.30;95.30;;;;;;1997380;28;20471;-73
2022/05/21 04:49:11;;;;;;;1.57;1.20;;;20.30;95.60;;;;;;1997229;28;20213;-72
2022/05/21 04:50:10;;;;;;;2.57;1.13;;;20.40;96.20;;;;;;1997412;28;20280;-72
2022/05/21 04:51:09;;;;;;;1.30;1.10;;;;;;;;;;1997600;28;20182;-72
2022/05/21 04:52:08;;;;;;;4.80;1.00;;;20.10;98.40;;;;;;1997589;28;20401;-72
2022/05/21 04:53:06;;;;;;;2.87;1.27;;;20.40;95.20;;;;;;1997311;28;20448;-72
2022/05/21 04:54:05;;;;;;;4.63;1.17;;;20.30;95.70;;;;;;1997371;28;20628;-71
2022/05/21 04:55:07;;;;;;;1.37;0.80;;;20.30;94.30;;;;;;1997329;28;20174;-71
2022/05/21 04:56:06;;;;;;;1.80;1.10;;;;;;;;;;1997192;28;20409;-71
2022/05/21 04:57:06;;;;;;;1.20;0.90;;;;;;;;;;1988750;28;20523;-71
2022/05/21 04:58:06;;;;;;;2.90;1.00;;;;;;;;;;1989013;28;20448;-71
2022/05/21 04:59:05;;;;;;;2.47;1.33;;;;;;;;;;1997037;28;20404;-72
2022/05/21 05:00:05;;;;;;;3.10;1.00;;;;;;;;;;1997110;28;20408;-71
2022/05/21 05:01:04;;;;;;;2.10;1.00;;;;;;;;;;1997095;28;20492;-72
2022/05/21 05:02:05;;;;;;;1.83;1.30;;;;;;;;;;1988888;28;20430;-72
2022/05/21 05:03:11;;;;;;;5.80;1.30;;;;;;;;;;1988833;28;20406;-73
2022/05/21 05:04:10;;;;;;;3.60;1.50;;;;;;;;;;1988922;28;20455;-71
2022/05/21 05:05:09;;;;;;;1.50;1.10;;;;;;;;;;1988869;28;20414;-71
2022/05/21 05:06:08;;;;;;;1.90;1.27;;;;;;;;;;1997328;28;20390;-71
2022/05/21 05:07:08;;;;;;;1.33;1.10;;;;;;;;;;1988701;28;20497;-72
2022/05/21 05:08:07;;;;;;;8.03;1.70;;;;;;;;;;1988833;28;20902;-72
2022/05/21 05:09:07;;;;;;;1.87;1.13;;;;;;;;;;1996849;28;20416;-71
2022/05/21 05:10:06;;;;;;;5.47;1.63;;;;;;;;;;1997320;28;20409;-72
2022/05/21 05:11:05;;;;;;;1.77;1.20;;;;;;;;;;1997271;28;20417;-72
2022/05/21 05:12:04;;;;;;;2.50;1.30;;;;;;;;;;1997163;28;20409;-71
2022/05/21 05:13:04;;;;;;;5.00;1.40;;;;;;;;;;1988711;28;20794;-73
2022/05/21 05:14:03;;;;;;;3.87;2.27;;;;;;;;;;1988888;28;20410;-71
2022/05/21 05:15:02;;;;;;;4.20;1.20;;;;;;;;;;1996893;28;20464;-72
2022/05/21 05:16:01;;;;;;;4.30;1.30;;;;;;;;;;1997132;28;20409;-72
2022/05/21 05:16:59;;;;;;;3.60;1.97;;;20.20;98.60;;;;;;1997074;28;20967;-72
2022/05/21 05:17:59;;;;;;;2.50;1.20;;;;;;;;;;1997276;28;20452;-71
2022/05/21 05:18:58;;;;;;;2.70;1.40;;;;;;;;;;1997554;28;20181;-71
2022/05/21 05:20:00;;;;;;;1.77;1.10;;;;;;;;;;1996697;28;20836;-71
2022/05/21 05:20:59;;;;;;;2.30;1.17;;;;;;;;;;1996596;28;20510;-71
2022/05/21 05:21:58;;;;;;;2.17;1.40;;;;;;;;;;1988740;28;20461;-71
2022/05/21 05:22:57;;;;;;;3.03;1.30;;;;;;;;;;1988783;28;20488;-71
2022/05/21 05:23:56;;;;;;;1.60;1.30;;;;;;;;;;1996250;28;20413;-71